sensor_id;sensor_type;location;lat;lon;timestamp;temperature;humidity
75296;DHT22;64623;44.738;37.804;2023-07-31T00:00:46;7.65;118.99
75296;DHT22;64623;44.738;37.804;2023-07-31T00:01:49;7.76;118.99
75296;DHT22;64623;44.738;37.804;2023-07-31T00:02:53;7.77;118.99
75296;DHT22;64623;44.738;37.804;2023-07-31T00:03:57;7.86;118.99
75296;DHT22;64623;44.738;37.804;2023-07-31T00:05:01;7.81;118.99
75296;DHT22;64623;44.738;37.804;2023-07-31T00:06:04;7.73;118.99
75296;DHT22;64623;44.738;37.804;2023-07-31T00:07:07;7.73;118.99
75296;DHT22;64623;44.738;37.804;2023-07-31T00:08:10;7.74;118.99
75296;DHT22;64623;44.738;37.804;2023-07-31T00:09:14;7.83;118.99
75296;DHT22;64623;44.738;37.804;2023-07-31T00:10:17;7.89;118.99
75296;DHT22;64623;44.738;37.804;2023-07-31T00:11:22;7.81;118.99
75296;DHT22;64623;44.738;37.804;2023-07-31T00:12:25;7.83;118.99
75296;DHT22;64623;44.738;37.804;2023-07-31T00:13:28;7.84;118.99
75296;DHT22;64623;44.738;37.804;2023-07-31T00:14:31;7.73;118.99
75296;DHT22;64623;44.738;37.804;2023-07-31T00:15:35;7.94;118.99
75296;DHT22;64623;44.738;37.804;2023-07-31T00:16:38;7.79;118.99
75296;DHT22;64623;44.738;37.804;2023-07-31T00:17:41;7.85;118.99
75296;DHT22;64623;44.738;37.804;2023-07-31T00:18:44;7.90;118.99
75296;DHT22;64623;44.738;37.804;2023-07-31T00:19:47;7.89;118.99
75296;DHT22;64623;44.738;37.804;2023-07-31T00:20:53;7.79;118.99
75296;DHT22;64623;44.738;37.804;2023-07-31T00:21:56;7.72;118.99
75296;DHT22;64623;44.738;37.804;2023-07-31T00:22:59;7.50;118.99
75296;DHT22;64623;44.738;37.804;2023-07-31T00:24:02;7.53;118.99
75296;DHT22;64623;44.738;37.804;2023-07-31T00:25:05;7.48;118.99
75296;DHT22;64623;44.738;37.804;2023-07-31T00:26:09;7.56;118.99
75296;DHT22;64623;44.738;37.804;2023-07-31T00:27:12;7.70;118.99
75296;DHT22;64623;44.738;37.804;2023-07-31T00:28:15;7.64;118.99
75296;DHT22;64623;44.738;37.804;2023-07-31T00:29:18;7.75;118.99
75296;DHT22;64623;44.738;37.804;2023-07-31T00:30:21;7.70;118.99
75296;DHT22;64623;44.738;37.804;2023-07-31T00:31:25;7.59;118.99
75296;DHT22;64623;44.738;37.804;2023-07-31T00:32:28;7.55;118.99
75296;DHT22;64623;44.738;37.804;2023-07-31T00:33:31;7.53;118.99
75296;DHT22;64623;44.738;37.804;2023-07-31T00:34:34;7.58;118.99
75296;DHT22;64623;44.738;37.804;2023-07-31T00:35:37;7.63;118.99
75296;DHT22;64623;44.738;37.804;2023-07-31T00:36:41;7.67;118.99
75296;DHT22;64623;44.738;37.804;2023-07-31T00:37:44;7.63;118.99
75296;DHT22;64623;44.738;37.804;2023-07-31T00:38:47;7.59;118.99
75296;DHT22;64623;44.738;37.804;2023-07-31T00:39:50;7.54;118.99
75296;DHT22;64623;44.738;37.804;2023-07-31T00:40:53;7.57;118.99
75296;DHT22;64623;44.738;37.804;2023-07-31T00:41:56;7.56;118.99
75296;DHT22;64623;44.738;37.804;2023-07-31T00:42:59;7.62;118.99
75296;DHT22;64623;44.738;37.804;2023-07-31T00:44:03;7.62;118.99
75296;DHT22;64623;44.738;37.804;2023-07-31T00:45:06;7.59;118.99
75296;DHT22;64623;44.738;37.804;2023-07-31T00:46:09;7.60;118.99
75296;DHT22;64623;44.738;37.804;2023-07-31T00:47:13;7.65;118.99
75296;DHT22;64623;44.738;37.804;2023-07-31T00:48:16;7.70;118.99
75296;DHT22;64623;44.738;37.804;2023-07-31T00:49:20;7.60;118.99
75296;DHT22;64623;44.738;37.804;2023-07-31T00:50:24;7.72;118.99
75296;DHT22;64623;44.738;37.804;2023-07-31T00:51:28;7.73;118.99
75296;DHT22;64623;44.738;37.804;2023-07-31T00:52:31;7.64;118.99
75296;DHT22;64623;44.738;37.804;2023-07-31T00:53:35;7.69;118.99
75296;DHT22;64623;44.738;37.804;2023-07-31T00:54:38;7.64;118.99
75296;DHT22;64623;44.738;37.804;2023-07-31T00:55:42;7.64;118.99
75296;DHT22;64623;44.738;37.804;2023-07-31T00:56:46;7.68;118.99
75296;DHT22;64623;44.738;37.804;2023-07-31T00:57:52;7.73;118.99
75296;DHT22;64623;44.738;37.804;2023-07-31T00:58:58;7.83;118.99
75296;DHT22;64623;44.738;37.804;2023-07-31T01:00:01;7.75;118.99
75296;DHT22;64623;44.738;37.804;2023-07-31T01:01:06;7.69;118.99
75296;DHT22;64623;44.738;37.804;2023-07-31T01:02:09;7.63;118.99
75296;DHT22;64623;44.738;37.804;2023-07-31T01:03:12;7.68;118.99
75296;DHT22;64623;44.738;37.804;2023-07-31T01:04:17;7.68;118.99
75296;DHT22;64623;44.738;37.804;2023-07-31T01:05:25;7.67;118.99
75296;DHT22;64623;44.738;37.804;2023-07-31T01:07:01;7.69;118.99
75296;DHT22;64623;44.738;37.804;2023-07-31T01:08:24;7.67;118.99
75296;DHT22;64623;44.738;37.804;2023-07-31T01:09:42;7.63;118.99
75296;DHT22;64623;44.738;37.804;2023-07-31T01:10:51;7.68;118.99
75296;DHT22;64623;44.738;37.804;2023-07-31T01:12:01;7.68;118.99
75296;DHT22;64623;44.738;37.804;2023-07-31T01:13:06;7.63;118.99
75296;DHT22;64623;44.738;37.804;2023-07-31T01:14:09;7.65;118.99
75296;DHT22;64623;44.738;37.804;2023-07-31T01:15:12;7.65;118.99
75296;DHT22;64623;44.738;37.804;2023-07-31T01:16:17;7.63;118.99
75296;DHT22;64623;44.738;37.804;2023-07-31T01:17:20;7.65;118.99
75296;DHT22;64623;44.738;37.804;2023-07-31T01:18:23;7.73;118.99
75296;DHT22;64623;44.738;37.804;2023-07-31T01:19:27;7.72;118.99
75296;DHT22;64623;44.738;37.804;2023-07-31T01:20:31;7.77;118.99
75296;DHT22;64623;44.738;37.804;2023-07-31T01:26:21;7.64;118.99
75296;DHT22;64623;44.738;37.804;2023-07-31T01:27:30;7.83;118.99
75296;DHT22;64623;44.738;37.804;2023-07-31T01:29:03;7.73;118.99
75296;DHT22;64623;44.738;37.804;2023-07-31T01:30:16;7.72;118.99
75296;DHT22;64623;44.738;37.804;2023-07-31T01:31:25;7.63;118.99
75296;DHT22;64623;44.738;37.804;2023-07-31T01:32:29;7.67;118.99
75296;DHT22;64623;44.738;37.804;2023-07-31T01:33:32;7.67;118.99
75296;DHT22;64623;44.738;37.804;2023-07-31T01:34:35;7.60;118.99
75296;DHT22;64623;44.738;37.804;2023-07-31T01:35:43;7.59;118.99
75296;DHT22;64623;44.738;37.804;2023-07-31T01:36:46;7.60;118.99
75296;DHT22;64623;44.738;37.804;2023-07-31T01:37:50;7.53;118.99
75296;DHT22;64623;44.738;37.804;2023-07-31T01:38:58;7.49;118.99
75296;DHT22;64623;44.738;37.804;2023-07-31T01:40:04;7.53;118.99
75296;DHT22;64623;44.738;37.804;2023-07-31T01:41:08;7.57;118.99
75296;DHT22;64623;44.738;37.804;2023-07-31T01:42:11;7.63;118.99
75296;DHT22;64623;44.738;37.804;2023-07-31T01:43:14;7.57;118.99
75296;DHT22;64623;44.738;37.804;2023-07-31T01:44:17;7.59;118.99
75296;DHT22;64623;44.738;37.804;2023-07-31T01:45:20;7.56;118.99
75296;DHT22;64623;44.738;37.804;2023-07-31T01:46:23;7.54;118.99
75296;DHT22;64623;44.738;37.804;2023-07-31T01:47:26;7.53;118.99
75296;DHT22;64623;44.738;37.804;2023-07-31T01:48:29;7.46;118.99
75296;DHT22;64623;44.738;37.804;2023-07-31T01:49:38;7.39;118.99
75296;DHT22;64623;44.738;37.804;2023-07-31T01:50:46;7.52;118.99
75296;DHT22;64623;44.738;37.804;2023-07-31T01:51:50;7.46;118.99
75296;DHT22;64623;44.738;37.804;2023-07-31T01:52:53;7.40;118.99
75296;DHT22;64623;44.738;37.804;2023-07-31T01:53:56;7.41;118.99
75296;DHT22;64623;44.738;37.804;2023-07-31T01:54:59;7.43;118.99
75296;DHT22;64623;44.738;37.804;2023-07-31T01:56:02;7.39;118.99
75296;DHT22;64623;44.738;37.804;2023-07-31T01:57:06;7.45;118.99
75296;DHT22;64623;44.738;37.804;2023-07-31T01:58:09;7.37;118.99
75296;DHT22;64623;44.738;37.804;2023-07-31T01:59:12;7.39;118.99
75296;DHT22;64623;44.738;37.804;2023-07-31T02:00:15;7.42;118.99
75296;DHT22;64623;44.738;37.804;2023-07-31T02:01:20;7.52;118.99
75296;DHT22;64623;44.738;37.804;2023-07-31T02:02:23;7.46;118.99
75296;DHT22;64623;44.738;37.804;2023-07-31T02:03:26;7.47;118.99
75296;DHT22;64623;44.738;37.804;2023-07-31T02:04:29;7.50;118.99
75296;DHT22;64623;44.738;37.804;2023-07-31T02:05:32;7.53;118.99
75296;DHT22;64623;44.738;37.804;2023-07-31T02:06:35;7.49;118.99
75296;DHT22;64623;44.738;37.804;2023-07-31T02:07:44;7.53;118.99
75296;DHT22;64623;44.738;37.804;2023-07-31T02:08:47;7.48;118.99
75296;DHT22;64623;44.738;37.804;2023-07-31T02:09:50;7.46;118.99
75296;DHT22;64623;44.738;37.804;2023-07-31T02:10:53;7.52;118.99
75296;DHT22;64623;44.738;37.804;2023-07-31T02:11:56;7.50;118.99
75296;DHT22;64623;44.738;37.804;2023-07-31T02:12:59;7.46;118.99
75296;DHT22;64623;44.738;37.804;2023-07-31T02:14:03;7.47;118.99
75296;DHT22;64623;44.738;37.804;2023-07-31T02:15:06;7.52;118.99
75296;DHT22;64623;44.738;37.804;2023-07-31T02:16:11;7.46;118.99
75296;DHT22;64623;44.738;37.804;2023-07-31T02:17:14;7.49;118.99
75296;DHT22;64623;44.738;37.804;2023-07-31T02:19:02;7.45;118.99
75296;DHT22;64623;44.738;37.804;2023-07-31T02:20:06;7.56;118.99
75296;DHT22;64623;44.738;37.804;2023-07-31T02:21:09;7.48;118.99
75296;DHT22;64623;44.738;37.804;2023-07-31T02:22:12;7.56;118.99
75296;DHT22;64623;44.738;37.804;2023-07-31T02:23:15;7.54;118.99
75296;DHT22;64623;44.738;37.804;2023-07-31T02:24:18;7.59;118.99
75296;DHT22;64623;44.738;37.804;2023-07-31T02:25:21;7.50;118.99
75296;DHT22;64623;44.738;37.804;2023-07-31T02:26:24;7.48;118.99
75296;DHT22;64623;44.738;37.804;2023-07-31T02:27:27;7.55;118.99
75296;DHT22;64623;44.738;37.804;2023-07-31T02:28:31;7.55;118.99
75296;DHT22;64623;44.738;37.804;2023-07-31T02:29:34;7.61;118.99
75296;DHT22;64623;44.738;37.804;2023-07-31T02:30:37;7.57;118.99
75296;DHT22;64623;44.738;37.804;2023-07-31T02:31:40;7.58;118.99
75296;DHT22;64623;44.738;37.804;2023-07-31T02:32:43;7.56;118.99
75296;DHT22;64623;44.738;37.804;2023-07-31T02:33:46;7.64;118.99
75296;DHT22;64623;44.738;37.804;2023-07-31T02:34:49;7.63;118.99
75296;DHT22;64623;44.738;37.804;2023-07-31T02:35:52;7.71;118.99
75296;DHT22;64623;44.738;37.804;2023-07-31T02:36:57;7.75;118.99
75296;DHT22;64623;44.738;37.804;2023-07-31T02:38:01;7.65;118.99
75296;DHT22;64623;44.738;37.804;2023-07-31T02:39:04;7.64;118.99
75296;DHT22;64623;44.738;37.804;2023-07-31T02:40:07;7.65;118.99
75296;DHT22;64623;44.738;37.804;2023-07-31T02:41:11;7.60;118.99
75296;DHT22;64623;44.738;37.804;2023-07-31T02:42:14;7.58;118.99
75296;DHT22;64623;44.738;37.804;2023-07-31T02:43:17;7.57;118.99
75296;DHT22;64623;44.738;37.804;2023-07-31T02:44:21;7.56;118.99
75296;DHT22;64623;44.738;37.804;2023-07-31T02:45:24;7.55;118.99
75296;DHT22;64623;44.738;37.804;2023-07-31T02:46:27;7.59;118.99
75296;DHT22;64623;44.738;37.804;2023-07-31T02:47:30;7.64;118.99
75296;DHT22;64623;44.738;37.804;2023-07-31T02:48:33;7.77;118.99
75296;DHT22;64623;44.738;37.804;2023-07-31T02:49:36;7.77;118.99
75296;DHT22;64623;44.738;37.804;2023-07-31T02:50:39;7.62;118.99
75296;DHT22;64623;44.738;37.804;2023-07-31T02:51:42;7.61;118.99
75296;DHT22;64623;44.738;37.804;2023-07-31T02:52:45;7.57;118.99
75296;DHT22;64623;44.738;37.804;2023-07-31T02:53:48;7.61;118.99
75296;DHT22;64623;44.738;37.804;2023-07-31T02:54:52;7.68;118.99
75296;DHT22;64623;44.738;37.804;2023-07-31T02:55:55;7.53;118.99
75296;DHT22;64623;44.738;37.804;2023-07-31T02:56:58;7.70;118.99
75296;DHT22;64623;44.738;37.804;2023-07-31T02:58:03;7.71;118.99
75296;DHT22;64623;44.738;37.804;2023-07-31T02:59:06;7.83;118.99
75296;DHT22;64623;44.738;37.804;2023-07-31T03:00:09;7.68;118.99
75296;DHT22;64623;44.738;37.804;2023-07-31T03:01:12;7.63;118.99
75296;DHT22;64623;44.738;37.804;2023-07-31T03:02:15;7.67;118.99
75296;DHT22;64623;44.738;37.804;2023-07-31T03:03:18;7.68;118.99
75296;DHT22;64623;44.738;37.804;2023-07-31T03:04:21;7.71;118.99
75296;DHT22;64623;44.738;37.804;2023-07-31T03:05:24;7.62;118.99
75296;DHT22;64623;44.738;37.804;2023-07-31T03:06:27;7.68;118.99
75296;DHT22;64623;44.738;37.804;2023-07-31T03:07:30;7.69;118.99
75296;DHT22;64623;44.738;37.804;2023-07-31T03:08:33;7.77;118.99
75296;DHT22;64623;44.738;37.804;2023-07-31T03:09:36;7.74;118.99
75296;DHT22;64623;44.738;37.804;2023-07-31T03:10:39;7.73;118.99
75296;DHT22;64623;44.738;37.804;2023-07-31T03:11:42;7.78;118.99
75296;DHT22;64623;44.738;37.804;2023-07-31T03:12:47;7.81;118.99
75296;DHT22;64623;44.738;37.804;2023-07-31T03:13:50;7.79;118.99
75296;DHT22;64623;44.738;37.804;2023-07-31T03:14:53;7.83;118.99
75296;DHT22;64623;44.738;37.804;2023-07-31T03:15:56;7.84;118.99
75296;DHT22;64623;44.738;37.804;2023-07-31T03:16:59;7.77;118.99
75296;DHT22;64623;44.738;37.804;2023-07-31T03:18:03;7.75;118.99
75296;DHT22;64623;44.738;37.804;2023-07-31T03:19:06;7.72;118.99
75296;DHT22;64623;44.738;37.804;2023-07-31T03:20:09;7.77;118.99
75296;DHT22;64623;44.738;37.804;2023-07-31T03:21:12;7.85;118.99
75296;DHT22;64623;44.738;37.804;2023-07-31T03:22:15;7.81;118.99
75296;DHT22;64623;44.738;37.804;2023-07-31T03:23:18;7.82;118.99
75296;DHT22;64623;44.738;37.804;2023-07-31T03:24:21;7.91;118.99
75296;DHT22;64623;44.738;37.804;2023-07-31T03:25:24;7.87;118.99
75296;DHT22;64623;44.738;37.804;2023-07-31T03:26:27;7.92;118.99
75296;DHT22;64623;44.738;37.804;2023-07-31T03:27:32;7.91;118.99
75296;DHT22;64623;44.738;37.804;2023-07-31T03:28:35;8.01;118.99
75296;DHT22;64623;44.738;37.804;2023-07-31T03:29:39;8.03;118.99
75296;DHT22;64623;44.738;37.804;2023-07-31T03:30:42;8.04;118.99
75296;DHT22;64623;44.738;37.804;2023-07-31T03:31:45;8.07;118.99
75296;DHT22;64623;44.738;37.804;2023-07-31T03:32:48;8.12;118.99
75296;DHT22;64623;44.738;37.804;2023-07-31T03:33:51;8.14;118.99
75296;DHT22;64623;44.738;37.804;2023-07-31T03:34:55;8.14;118.99
75296;DHT22;64623;44.738;37.804;2023-07-31T03:35:58;8.16;118.99
75296;DHT22;64623;44.738;37.804;2023-07-31T03:37:01;8.15;118.99
75296;DHT22;64623;44.738;37.804;2023-07-31T03:38:05;8.23;118.99
75296;DHT22;64623;44.738;37.804;2023-07-31T03:39:08;8.24;118.99
75296;DHT22;64623;44.738;37.804;2023-07-31T03:40:11;8.34;118.99
75296;DHT22;64623;44.738;37.804;2023-07-31T03:41:14;8.29;118.99
75296;DHT22;64623;44.738;37.804;2023-07-31T03:42:19;8.29;118.99
75296;DHT22;64623;44.738;37.804;2023-07-31T03:43:25;8.37;118.99
75296;DHT22;64623;44.738;37.804;2023-07-31T03:44:29;8.37;118.99
75296;DHT22;64623;44.738;37.804;2023-07-31T03:45:32;8.36;118.99
75296;DHT22;64623;44.738;37.804;2023-07-31T03:46:35;8.46;118.99
75296;DHT22;64623;44.738;37.804;2023-07-31T03:47:39;8.49;118.99
75296;DHT22;64623;44.738;37.804;2023-07-31T03:48:42;8.51;118.99
75296;DHT22;64623;44.738;37.804;2023-07-31T03:49:45;8.50;118.99
75296;DHT22;64623;44.738;37.804;2023-07-31T03:50:49;8.55;118.99
75296;DHT22;64623;44.738;37.804;2023-07-31T03:51:52;8.51;118.99
75296;DHT22;64623;44.738;37.804;2023-07-31T03:52:55;8.47;118.99
75296;DHT22;64623;44.738;37.804;2023-07-31T03:53:58;8.53;118.99
75296;DHT22;64623;44.738;37.804;2023-07-31T03:55:01;8.61;118.99
75296;DHT22;64623;44.738;37.804;2023-07-31T03:56:04;8.63;118.99
75296;DHT22;64623;44.738;37.804;2023-07-31T03:57:07;8.71;118.99
75296;DHT22;64623;44.738;37.804;2023-07-31T03:58:10;8.73;118.99
75296;DHT22;64623;44.738;37.804;2023-07-31T03:59:13;8.65;118.99
75296;DHT22;64623;44.738;37.804;2023-07-31T04:00:22;8.87;118.99
75296;DHT22;64623;44.738;37.804;2023-07-31T04:01:30;8.82;118.99
75296;DHT22;64623;44.738;37.804;2023-07-31T04:02:38;8.89;118.99
75296;DHT22;64623;44.738;37.804;2023-07-31T04:03:42;8.78;118.99
75296;DHT22;64623;44.738;37.804;2023-07-31T04:04:45;8.82;118.99
75296;DHT22;64623;44.738;37.804;2023-07-31T04:05:48;8.96;118.99
75296;DHT22;64623;44.738;37.804;2023-07-31T04:06:51;8.79;118.99
75296;DHT22;64623;44.738;37.804;2023-07-31T04:07:54;8.90;118.99
75296;DHT22;64623;44.738;37.804;2023-07-31T04:08:57;8.88;118.99
75296;DHT22;64623;44.738;37.804;2023-07-31T04:10:00;8.83;118.99
75296;DHT22;64623;44.738;37.804;2023-07-31T04:11:03;8.98;118.99
75296;DHT22;64623;44.738;37.804;2023-07-31T04:12:07;9.02;118.99
75296;DHT22;64623;44.738;37.804;2023-07-31T04:13:10;9.12;118.99
75296;DHT22;64623;44.738;37.804;2023-07-31T04:14:12;9.09;118.99
75296;DHT22;64623;44.738;37.804;2023-07-31T04:15:16;9.14;118.99
75296;DHT22;64623;44.738;37.804;2023-07-31T04:16:19;9.20;118.99
75296;DHT22;64623;44.738;37.804;2023-07-31T04:17:22;9.19;118.99
75296;DHT22;64623;44.738;37.804;2023-07-31T04:18:25;9.18;118.99
75296;DHT22;64623;44.738;37.804;2023-07-31T04:19:28;9.25;118.99
75296;DHT22;64623;44.738;37.804;2023-07-31T04:20:31;9.38;118.99
75296;DHT22;64623;44.738;37.804;2023-07-31T04:21:34;9.39;118.99
75296;DHT22;64623;44.738;37.804;2023-07-31T04:22:37;9.46;118.99
75296;DHT22;64623;44.738;37.804;2023-07-31T04:23:40;9.41;118.99
75296;DHT22;64623;44.738;37.804;2023-07-31T04:24:43;9.52;118.99
75296;DHT22;64623;44.738;37.804;2023-07-31T04:25:47;9.51;118.99
75296;DHT22;64623;44.738;37.804;2023-07-31T04:26:53;9.54;118.99
75296;DHT22;64623;44.738;37.804;2023-07-31T04:27:56;9.59;118.99
75296;DHT22;64623;44.738;37.804;2023-07-31T04:28:59;9.59;118.99
75296;DHT22;64623;44.738;37.804;2023-07-31T04:30:02;9.65;118.99
75296;DHT22;64623;44.738;37.804;2023-07-31T04:31:05;9.62;118.99
75296;DHT22;64623;44.738;37.804;2023-07-31T04:32:08;9.63;118.99
75296;DHT22;64623;44.738;37.804;2023-07-31T04:33:12;9.63;118.99
75296;DHT22;64623;44.738;37.804;2023-07-31T04:34:15;9.88;118.99
75296;DHT22;64623;44.738;37.804;2023-07-31T04:35:18;9.72;118.99
75296;DHT22;64623;44.738;37.804;2023-07-31T04:36:21;9.85;118.99
75296;DHT22;64623;44.738;37.804;2023-07-31T04:37:24;9.91;118.99
75296;DHT22;64623;44.738;37.804;2023-07-31T04:38:27;9.95;118.99
75296;DHT22;64623;44.738;37.804;2023-07-31T04:39:35;9.96;118.99
75296;DHT22;64623;44.738;37.804;2023-07-31T04:40:38;9.97;118.99
75296;DHT22;64623;44.738;37.804;2023-07-31T04:41:41;10.03;118.99
75296;DHT22;64623;44.738;37.804;2023-07-31T04:42:44;10.03;118.99
75296;DHT22;64623;44.738;37.804;2023-07-31T04:43:47;10.01;118.99
75296;DHT22;64623;44.738;37.804;2023-07-31T04:44:50;10.21;118.99
75296;DHT22;64623;44.738;37.804;2023-07-31T04:45:53;10.24;118.99
75296;DHT22;64623;44.738;37.804;2023-07-31T04:46:56;10.18;118.99
75296;DHT22;64623;44.738;37.804;2023-07-31T04:47:59;10.11;118.99
75296;DHT22;64623;44.738;37.804;2023-07-31T04:49:03;10.23;118.99
75296;DHT22;64623;44.738;37.804;2023-07-31T04:50:06;10.30;118.99
75296;DHT22;64623;44.738;37.804;2023-07-31T04:51:09;10.27;118.99
75296;DHT22;64623;44.738;37.804;2023-07-31T04:52:12;10.41;118.99
75296;DHT22;64623;44.738;37.804;2023-07-31T04:53:15;10.29;118.99
75296;DHT22;64623;44.738;37.804;2023-07-31T04:54:18;10.48;118.99
75296;DHT22;64623;44.738;37.804;2023-07-31T04:55:21;10.45;118.99
75296;DHT22;64623;44.738;37.804;2023-07-31T04:56:25;10.43;118.99
75296;DHT22;64623;44.738;37.804;2023-07-31T04:57:28;10.43;118.99
75296;DHT22;64623;44.738;37.804;2023-07-31T04:58:31;10.66;118.99
75296;DHT22;64623;44.738;37.804;2023-07-31T04:59:34;10.66;118.99
75296;DHT22;64623;44.738;37.804;2023-07-31T05:00:37;10.64;118.99
75296;DHT22;64623;44.738;37.804;2023-07-31T05:01:40;10.72;118.99
75296;DHT22;64623;44.738;37.804;2023-07-31T05:02:43;10.83;118.99
75296;DHT22;64623;44.738;37.804;2023-07-31T05:03:46;10.89;118.99
75296;DHT22;64623;44.738;37.804;2023-07-31T05:04:49;10.81;118.99
75296;DHT22;64623;44.738;37.804;2023-07-31T05:05:52;10.90;118.99
75296;DHT22;64623;44.738;37.804;2023-07-31T05:06:55;10.92;118.99
75296;DHT22;64623;44.738;37.804;2023-07-31T05:07:59;10.94;118.99
75296;DHT22;64623;44.738;37.804;2023-07-31T05:09:02;10.95;118.99
75296;DHT22;64623;44.738;37.804;2023-07-31T05:10:05;11.00;118.99
75296;DHT22;64623;44.738;37.804;2023-07-31T05:11:13;11.08;118.99
75296;DHT22;64623;44.738;37.804;2023-07-31T05:12:16;11.11;118.99
75296;DHT22;64623;44.738;37.804;2023-07-31T05:13:19;11.16;118.99
75296;DHT22;64623;44.738;37.804;2023-07-31T05:14:23;11.27;118.99
75296;DHT22;64623;44.738;37.804;2023-07-31T05:15:26;11.27;118.99
75296;DHT22;64623;44.738;37.804;2023-07-31T05:16:29;11.19;118.99
75296;DHT22;64623;44.738;37.804;2023-07-31T05:17:32;11.32;118.99
75296;DHT22;64623;44.738;37.804;2023-07-31T05:18:36;11.31;118.99
75296;DHT22;64623;44.738;37.804;2023-07-31T05:19:39;11.41;118.99
75296;DHT22;64623;44.738;37.804;2023-07-31T05:20:43;11.48;118.99
75296;DHT22;64623;44.738;37.804;2023-07-31T05:21:46;11.49;118.99
75296;DHT22;64623;44.738;37.804;2023-07-31T05:22:50;11.53;118.99
75296;DHT22;64623;44.738;37.804;2023-07-31T05:23:53;11.43;118.99
75296;DHT22;64623;44.738;37.804;2023-07-31T05:24:56;11.48;118.99
75296;DHT22;64623;44.738;37.804;2023-07-31T05:26:06;11.46;118.99
75296;DHT22;64623;44.738;37.804;2023-07-31T05:27:09;11.47;118.99
75296;DHT22;64623;44.738;37.804;2023-07-31T05:28:14;11.42;118.99
75296;DHT22;64623;44.738;37.804;2023-07-31T05:29:17;11.57;118.99
75296;DHT22;64623;44.738;37.804;2023-07-31T05:30:20;11.44;118.99
75296;DHT22;64623;44.738;37.804;2023-07-31T05:31:24;11.44;118.99
75296;DHT22;64623;44.738;37.804;2023-07-31T05:32:27;11.56;118.99
75296;DHT22;64623;44.738;37.804;2023-07-31T05:33:30;11.52;118.99
75296;DHT22;64623;44.738;37.804;2023-07-31T05:34:33;11.53;118.99
75296;DHT22;64623;44.738;37.804;2023-07-31T05:35:42;11.72;118.99
75296;DHT22;64623;44.738;37.804;2023-07-31T05:36:47;11.75;118.99
75296;DHT22;64623;44.738;37.804;2023-07-31T05:37:50;11.79;118.99
75296;DHT22;64623;44.738;37.804;2023-07-31T05:38:53;11.76;118.99
75296;DHT22;64623;44.738;37.804;2023-07-31T05:39:56;11.76;118.99
75296;DHT22;64623;44.738;37.804;2023-07-31T05:40:59;11.83;118.99
75296;DHT22;64623;44.738;37.804;2023-07-31T05:42:02;11.82;118.99
75296;DHT22;64623;44.738;37.804;2023-07-31T05:43:05;11.66;118.99
75296;DHT22;64623;44.738;37.804;2023-07-31T05:44:10;11.66;118.99
75296;DHT22;64623;44.738;37.804;2023-07-31T05:45:19;11.64;118.99
75296;DHT22;64623;44.738;37.804;2023-07-31T05:46:22;11.71;118.99
75296;DHT22;64623;44.738;37.804;2023-07-31T05:47:25;11.75;118.99
75296;DHT22;64623;44.738;37.804;2023-07-31T05:48:28;11.79;118.99
75296;DHT22;64623;44.738;37.804;2023-07-31T05:49:31;11.83;118.99
75296;DHT22;64623;44.738;37.804;2023-07-31T05:50:34;11.91;118.99
75296;DHT22;64623;44.738;37.804;2023-07-31T05:51:37;11.98;118.99
75296;DHT22;64623;44.738;37.804;2023-07-31T05:52:40;11.92;118.99
75296;DHT22;64623;44.738;37.804;2023-07-31T05:53:43;12.10;118.99
75296;DHT22;64623;44.738;37.804;2023-07-31T05:54:52;12.11;118.99
75296;DHT22;64623;44.738;37.804;2023-07-31T05:55:55;12.18;118.99
75296;DHT22;64623;44.738;37.804;2023-07-31T05:56:58;12.15;118.99
75296;DHT22;64623;44.738;37.804;2023-07-31T05:58:01;12.26;118.99
75296;DHT22;64623;44.738;37.804;2023-07-31T05:59:04;12.40;118.99
75296;DHT22;64623;44.738;37.804;2023-07-31T06:00:08;12.47;118.99
75296;DHT22;64623;44.738;37.804;2023-07-31T06:01:11;12.41;118.99
75296;DHT22;64623;44.738;37.804;2023-07-31T06:02:14;12.62;118.99
75296;DHT22;64623;44.738;37.804;2023-07-31T06:03:17;12.56;118.99
75296;DHT22;64623;44.738;37.804;2023-07-31T06:04:20;12.75;118.99
75296;DHT22;64623;44.738;37.804;2023-07-31T06:05:25;12.73;118.99
75296;DHT22;64623;44.738;37.804;2023-07-31T06:06:29;12.88;118.99
75296;DHT22;64623;44.738;37.804;2023-07-31T06:07:32;12.85;118.99
75296;DHT22;64623;44.738;37.804;2023-07-31T06:08:35;12.70;118.99
75296;DHT22;64623;44.738;37.804;2023-07-31T06:09:38;12.77;118.99
75296;DHT22;64623;44.738;37.804;2023-07-31T06:10:41;12.76;118.99
75296;DHT22;64623;44.738;37.804;2023-07-31T06:11:44;13.21;118.99
75296;DHT22;64623;44.738;37.804;2023-07-31T06:12:47;13.16;118.99
75296;DHT22;64623;44.738;37.804;2023-07-31T06:13:50;13.18;118.99
75296;DHT22;64623;44.738;37.804;2023-07-31T06:14:54;13.37;118.99
75296;DHT22;64623;44.738;37.804;2023-07-31T06:15:57;13.43;118.99
75296;DHT22;64623;44.738;37.804;2023-07-31T06:17:07;13.49;118.99
75296;DHT22;64623;44.738;37.804;2023-07-31T06:18:15;13.45;118.99
75296;DHT22;64623;44.738;37.804;2023-07-31T06:19:18;13.38;118.99
75296;DHT22;64623;44.738;37.804;2023-07-31T06:20:23;13.48;118.99
75296;DHT22;64623;44.738;37.804;2023-07-31T06:21:26;13.46;118.99
75296;DHT22;64623;44.738;37.804;2023-07-31T06:22:29;13.62;118.99
75296;DHT22;64623;44.738;37.804;2023-07-31T06:23:32;13.63;118.99
75296;DHT22;64623;44.738;37.804;2023-07-31T06:24:35;13.61;118.99
75296;DHT22;64623;44.738;37.804;2023-07-31T06:25:38;13.66;118.99
75296;DHT22;64623;44.738;37.804;2023-07-31T06:26:41;13.66;118.99
75296;DHT22;64623;44.738;37.804;2023-07-31T06:27:44;13.61;118.99
75296;DHT22;64623;44.738;37.804;2023-07-31T06:28:47;13.61;118.99
75296;DHT22;64623;44.738;37.804;2023-07-31T06:29:50;13.78;118.99
75296;DHT22;64623;44.738;37.804;2023-07-31T06:30:53;13.71;118.99
75296;DHT22;64623;44.738;37.804;2023-07-31T06:31:57;13.74;118.99
75296;DHT22;64623;44.738;37.804;2023-07-31T06:33:01;13.91;118.99
75296;DHT22;64623;44.738;37.804;2023-07-31T06:34:04;13.80;118.99
75296;DHT22;64623;44.738;37.804;2023-07-31T06:35:08;13.83;118.99
75296;DHT22;64623;44.738;37.804;2023-07-31T06:36:11;13.83;118.99
75296;DHT22;64623;44.738;37.804;2023-07-31T06:37:14;13.95;118.99
75296;DHT22;64623;44.738;37.804;2023-07-31T06:38:21;14.05;118.99
75296;DHT22;64623;44.738;37.804;2023-07-31T06:47:56;14.36;118.99
75296;DHT22;64623;44.738;37.804;2023-07-31T06:49:04;14.30;118.99
75296;DHT22;64623;44.738;37.804;2023-07-31T06:50:08;14.35;118.99